createdAt,value
2018-09-20T00:02:10.329Z,84.70
2018-09-20T00:04:39.748Z,84.70
2018-09-20T00:07:09.213Z,84.00
2018-09-20T00:09:38.768Z,84.40
2018-09-20T00:12:08.321Z,83.90
2018-09-20T00:14:37.985Z,83.50
2018-09-20T00:17:08.021Z,84.00
2018-09-20T00:19:37.555Z,83.90
2018-09-20T00:22:07.285Z,83.60
2018-09-20T00:24:36.737Z,84.20
2018-09-20T00:27:06.476Z,84.30
2018-09-20T00:29:36.410Z,84.20
2018-09-20T00:32:06.151Z,84.20
2018-09-20T00:34:35.927Z,84.40
2018-09-20T00:37:05.608Z,83.30
2018-09-20T00:39:35.604Z,83.10
2018-09-20T00:42:05.359Z,83.80
2018-09-20T00:44:35.323Z,82.90
2018-09-20T00:47:05.374Z,82.50
2018-09-20T00:49:35.256Z,82.50
2018-09-20T00:52:05.322Z,82.00
2018-09-20T00:54:35.658Z,81.70
2018-09-20T00:57:05.674Z,81.70
2018-09-20T00:59:35.374Z,81.30
2018-09-20T01:02:05.326Z,81.30
2018-09-20T01:04:35.201Z,81.40
2018-09-20T01:07:04.915Z,81.10
2018-09-20T01:09:34.968Z,81.20
2018-09-20T01:12:04.893Z,81.10
2018-09-20T01:14:34.662Z,81.10
2018-09-20T01:17:04.502Z,80.70
2018-09-20T01:19:34.393Z,80.50
2018-09-20T01:22:04.305Z,80.50
2018-09-20T01:24:34.326Z,80.90
2018-09-20T01:27:04.128Z,81.00
2018-09-20T01:29:34.081Z,80.80
2018-09-20T01:32:04.201Z,80.60
2018-09-20T01:34:34.093Z,80.80
2018-09-20T01:37:04.198Z,80.50
2018-09-20T01:39:34.341Z,80.70
2018-09-20T01:42:04.301Z,80.70
2018-09-20T01:44:34.281Z,80.40
2018-09-20T01:47:04.893Z,80.90
2018-09-20T01:49:34.827Z,81.30
2018-09-20T01:52:04.640Z,81.50
2018-09-20T01:54:34.741Z,80.80
2018-09-20T01:57:04.684Z,81.20
2018-09-20T01:59:34.691Z,81.20
2018-09-20T02:02:04.723Z,81.40
2018-09-20T02:04:34.917Z,81.60
2018-09-20T02:07:04.752Z,82.40
2018-09-20T02:09:34.594Z,82.70
2018-09-20T02:12:04.929Z,82.30
2018-09-20T02:14:34.507Z,82.10
2018-09-20T02:17:04.108Z,82.30
2018-09-20T02:19:33.792Z,82.80
2018-09-20T02:22:03.574Z,82.80
2018-09-20T02:24:33.322Z,82.90
2018-09-20T02:27:03.239Z,82.90
2018-09-20T02:29:33.119Z,82.70
2018-09-20T02:32:03.143Z,82.70
2018-09-20T02:34:33.264Z,83.00
2018-09-20T02:37:03.347Z,83.20
2018-09-20T02:39:33.235Z,82.30
2018-09-20T02:42:02.807Z,82.70
2018-09-20T02:44:32.692Z,82.70
2018-09-20T02:47:02.468Z,83.00
2018-09-20T02:49:32.310Z,82.40
2018-09-20T02:52:02.335Z,82.00
2018-09-20T02:54:32.493Z,82.60
2018-09-20T02:57:02.545Z,82.50
2018-09-20T02:59:32.669Z,82.00
2018-09-20T03:02:02.983Z,82.50
2018-09-20T03:04:33.599Z,82.40
2018-09-20T03:07:03.745Z,82.50
2018-09-20T03:09:33.999Z,82.90
2018-09-20T03:12:04.412Z,82.40
2018-09-20T03:14:35.026Z,83.20
2018-09-20T03:17:05.318Z,83.10
2018-09-20T03:19:35.258Z,82.80
2018-09-20T03:22:05.322Z,83.30
2018-09-20T03:24:35.550Z,83.60
2018-09-20T03:27:05.785Z,84.10
2018-09-20T03:29:36.173Z,84.20
2018-09-20T03:32:06.439Z,84.40
2018-09-20T03:34:36.446Z,84.40
2018-09-20T03:37:06.142Z,84.40
2018-09-20T03:39:36.492Z,84.60
2018-09-20T03:42:07.001Z,84.60
2018-09-20T03:44:37.024Z,84.40
2018-09-20T03:47:07.182Z,84.60
2018-09-20T03:49:36.970Z,84.70
2018-09-20T03:52:07.037Z,85.10
2018-09-20T03:54:36.956Z,84.90
2018-09-20T03:57:06.773Z,85.00
2018-09-20T03:59:36.620Z,85.20
2018-09-20T04:02:06.763Z,85.50
2018-09-20T04:04:36.695Z,85.70
2018-09-20T04:07:06.810Z,85.90
2018-09-20T04:09:36.660Z,85.70
2018-09-20T04:12:06.457Z,86.00
2018-09-20T04:14:36.283Z,85.40
2018-09-20T04:17:06.710Z,85.60
2018-09-20T04:19:36.631Z,86.10
2018-09-20T04:22:06.503Z,85.90
2018-09-20T04:24:36.474Z,86.00
2018-09-20T04:27:06.386Z,86.30
2018-09-20T04:29:40.304Z,86.30
2018-09-20T04:32:09.827Z,86.20
2018-09-20T04:34:39.322Z,86.30
2018-09-20T04:37:08.992Z,86.20
2018-09-20T04:39:39.256Z,86.60
2018-09-20T04:42:08.961Z,85.40
2018-09-20T04:44:38.385Z,85.20
2018-09-20T04:47:08.078Z,84.90
2018-09-20T04:49:37.796Z,85.10
2018-09-20T04:52:07.440Z,84.40
2018-09-20T04:54:37.169Z,84.10
2018-09-20T04:57:07.537Z,84.00
2018-09-20T04:59:38.093Z,84.00
2018-09-20T05:02:08.101Z,84.50
2018-09-20T05:04:38.152Z,84.00
2018-09-20T05:07:08.221Z,83.80
2018-09-20T05:09:38.409Z,83.10
2018-09-20T05:12:08.133Z,82.90
2018-09-20T05:14:38.016Z,83.40
2018-09-20T05:17:08.419Z,83.90
2018-09-20T05:19:38.113Z,83.70
2018-09-20T05:22:07.825Z,83.90
2018-09-20T05:24:37.850Z,83.70
2018-09-20T05:27:07.658Z,83.70
2018-09-20T05:29:37.880Z,83.70
2018-09-20T05:32:07.573Z,83.50
2018-09-20T05:34:37.526Z,83.10
2018-09-20T05:37:08.628Z,83.80
2018-09-20T05:39:38.544Z,83.80
2018-09-20T05:42:08.837Z,82.60
2018-09-20T05:44:38.899Z,83.60
2018-09-20T05:47:09.259Z,83.60
2018-09-20T05:49:39.443Z,84.10
2018-09-20T05:52:09.415Z,83.80
2018-09-20T05:54:39.101Z,83.80
2018-09-20T05:57:09.072Z,83.30
2018-09-20T05:59:39.137Z,83.50
2018-09-20T06:02:09.501Z,83.40
2018-09-20T06:04:39.171Z,82.80
2018-09-20T06:07:08.755Z,83.10
2018-09-20T06:09:38.342Z,82.50
2018-09-20T06:12:08.001Z,82.90
2018-09-20T06:14:38.430Z,82.90
2018-09-20T06:17:08.079Z,83.30
2018-09-20T06:19:37.789Z,82.70
2018-09-20T06:22:08.494Z,82.00
2018-09-20T06:24:38.035Z,81.70
2018-09-20T06:27:08.558Z,81.20
2018-09-20T06:29:38.534Z,81.90
2018-09-20T06:32:07.909Z,81.00
2018-09-20T06:34:37.276Z,80.90
2018-09-20T06:37:07.662Z,80.60
2018-09-20T06:39:37.022Z,80.70
2018-09-20T06:42:06.599Z,80.90
2018-09-20T06:44:35.930Z,80.60
2018-09-20T06:47:05.365Z,80.30
2018-09-20T06:49:34.898Z,80.90
2018-09-20T06:52:04.594Z,81.00
2018-09-20T06:54:34.381Z,80.20
2018-09-20T06:57:03.679Z,79.20
2018-09-20T06:59:33.348Z,80.00
2018-09-20T07:02:03.002Z,80.20
2018-09-20T07:04:32.984Z,79.70
2018-09-20T07:07:02.509Z,79.20
2018-09-20T07:09:32.523Z,79.30
2018-09-20T07:12:02.259Z,78.90
2018-09-20T07:14:31.950Z,79.80
2018-09-20T07:17:02.466Z,78.10
2018-09-20T07:19:32.383Z,77.20
2018-09-20T07:22:02.253Z,76.30
2018-09-20T07:24:31.990Z,76.80
2018-09-20T07:27:01.415Z,75.50
2018-09-20T07:29:31.371Z,74.80
2018-09-20T07:32:01.183Z,73.20
2018-09-20T07:34:31.113Z,73.90
2018-09-20T07:37:01.009Z,71.90
2018-09-20T07:39:31.060Z,71.60
2018-09-20T07:42:01.025Z,70.20
2018-09-20T07:44:30.785Z,71.60
2018-09-20T07:47:00.453Z,66.20
2018-09-20T07:49:30.317Z,65.80
2018-09-20T07:52:00.279Z,67.10
2018-09-20T07:54:30.170Z,65.00
2018-09-20T07:56:59.983Z,63.80
2018-09-20T07:59:30.176Z,63.20
2018-09-20T08:02:00.642Z,62.80
2018-09-20T08:04:30.469Z,62.90
2018-09-20T08:07:00.381Z,64.50
2018-09-20T08:09:30.542Z,61.40
2018-09-20T08:12:00.414Z,62.70
2018-09-20T08:14:30.200Z,62.20
2018-09-20T08:16:59.984Z,61.90
2018-09-20T08:19:30.057Z,61.80
2018-09-20T08:22:00.111Z,62.20
2018-09-20T08:24:30.481Z,61.20
2018-09-20T08:27:00.461Z,61.30
2018-09-20T08:29:30.775Z,60.00
2018-09-20T08:32:01.148Z,59.10
2018-09-20T08:34:31.589Z,60.90
2018-09-20T08:37:01.527Z,59.50
2018-09-20T08:39:32.034Z,59.10
2018-09-20T08:42:01.885Z,59.40
2018-09-20T08:44:31.930Z,58.00
2018-09-20T08:47:01.778Z,57.60
2018-09-20T08:49:31.598Z,58.10
2018-09-20T08:52:01.947Z,56.10
2018-09-20T08:54:31.750Z,56.50
2018-09-20T08:57:01.512Z,55.00
2018-09-20T08:59:31.680Z,53.90
2018-09-20T09:02:01.433Z,54.20
2018-09-20T09:04:31.512Z,51.60
2018-09-20T09:07:01.191Z,52.90
2018-09-20T09:09:31.038Z,54.40
2018-09-20T09:12:00.849Z,51.60
2018-09-20T09:14:30.617Z,51.90
2018-09-20T09:17:00.472Z,49.50
2018-09-20T09:19:30.299Z,51.30
2018-09-20T09:21:59.898Z,49.70
2018-09-20T09:24:29.474Z,50.10
2018-09-20T09:26:59.400Z,50.00
2018-09-20T09:29:30.154Z,49.90
2018-09-20T09:32:00.113Z,50.30
2018-09-20T09:34:30.057Z,51.00
2018-09-20T09:37:00.346Z,48.70
2018-09-20T09:39:30.289Z,48.30
2018-09-20T09:42:00.321Z,47.20
2018-09-20T09:44:30.373Z,48.70
2018-09-20T09:47:00.808Z,47.70
2018-09-20T09:49:30.505Z,47.60
2018-09-20T09:52:00.306Z,48.60
2018-09-20T09:54:31.056Z,49.50
2018-09-20T09:57:00.839Z,47.50
2018-09-20T09:59:30.763Z,46.80
2018-09-20T10:02:00.622Z,48.80
2018-09-20T10:04:30.548Z,49.20
2018-09-20T10:06:59.974Z,47.20
2018-09-20T10:09:29.398Z,48.30
2018-09-20T10:11:58.867Z,46.70
2018-09-20T10:14:28.331Z,50.10
2018-09-20T10:16:57.986Z,50.50
2018-09-20T10:19:28.129Z,47.90
2018-09-20T10:21:58.952Z,46.60
2018-09-20T10:24:28.901Z,45.50
2018-09-20T10:26:58.913Z,47.00
2018-09-20T10:29:29.640Z,45.70
2018-09-20T10:31:59.923Z,47.30
2018-09-20T10:34:29.798Z,47.70
2018-09-20T10:36:59.722Z,49.60
2018-09-20T10:39:29.572Z,49.20
2018-09-20T10:41:59.423Z,48.30
2018-09-20T10:44:29.651Z,49.80
2018-09-20T10:46:59.421Z,48.40
2018-09-20T10:49:29.303Z,48.20
2018-09-20T10:51:59.386Z,50.70
2018-09-20T10:54:29.564Z,48.60
2018-09-20T10:56:59.511Z,49.30
2018-09-20T10:59:29.523Z,48.30
2018-09-20T11:02:00.307Z,46.00
2018-09-20T11:04:30.281Z,45.00
2018-09-20T11:07:00.853Z,48.40
2018-09-20T11:09:30.843Z,44.40
2018-09-20T11:12:00.617Z,46.00
2018-09-20T11:14:30.548Z,47.60
2018-09-20T11:17:00.190Z,46.40
2018-09-20T11:19:30.076Z,46.30
2018-09-20T11:22:00.349Z,47.50
2018-09-20T11:24:30.069Z,44.00
2018-09-20T11:27:00.381Z,46.10
2018-09-20T11:29:30.319Z,42.00
2018-09-20T11:32:00.259Z,42.50
2018-09-20T11:34:30.478Z,43.60
2018-09-20T11:37:00.814Z,44.10
2018-09-20T11:39:30.862Z,44.70
2018-09-20T11:42:01.085Z,46.20
2018-09-20T11:44:31.113Z,47.50
2018-09-20T11:47:01.141Z,49.70
2018-09-20T11:49:30.959Z,50.10
2018-09-20T11:52:01.062Z,48.40
2018-09-20T11:54:30.768Z,49.90
2018-09-20T11:57:01.032Z,47.90
2018-09-20T11:59:30.952Z,46.40
2018-09-20T12:02:00.620Z,46.50
2018-09-20T12:04:30.545Z,44.80
2018-09-20T12:07:00.431Z,47.40
2018-09-20T12:09:30.449Z,50.80
2018-09-20T12:12:00.586Z,50.40
2018-09-20T12:14:30.880Z,48.70
2018-09-20T12:17:01.232Z,51.60
2018-09-20T12:19:31.029Z,49.70
2018-09-20T12:22:00.919Z,50.80
2018-09-20T12:24:30.540Z,48.90
2018-09-20T12:27:00.374Z,50.60
2018-09-20T12:29:30.359Z,48.90
2018-09-20T12:32:00.208Z,48.30
2018-09-20T12:34:30.063Z,49.20
2018-09-20T12:36:59.835Z,50.20
2018-09-20T12:39:29.899Z,48.40
2018-09-20T12:42:00.362Z,48.70
2018-09-20T12:44:30.515Z,49.60
2018-09-20T12:47:00.311Z,48.90
2018-09-20T12:49:30.217Z,50.90
2018-09-20T12:52:00.250Z,49.00
2018-09-20T12:54:30.185Z,49.30
2018-09-20T12:57:00.534Z,49.00
2018-09-20T12:59:30.255Z,48.50
2018-09-20T13:02:00.371Z,47.60
2018-09-20T13:04:30.497Z,45.10
2018-09-20T13:07:00.322Z,47.10
2018-09-20T13:09:30.594Z,48.10
2018-09-20T13:12:00.522Z,49.60
2018-09-20T13:14:31.495Z,46.80
2018-09-20T13:17:01.792Z,48.70
2018-09-20T13:19:31.628Z,47.90
2018-09-20T13:22:01.376Z,48.30
2018-09-20T13:24:31.426Z,46.00
2018-09-20T13:27:01.551Z,48.00
2018-09-20T13:29:31.657Z,46.90
2018-09-20T13:32:01.060Z,47.30
2018-09-20T13:34:30.385Z,46.50
2018-09-20T13:36:59.793Z,45.50
2018-09-20T13:39:29.282Z,44.80
2018-09-20T13:41:58.621Z,45.70
2018-09-20T13:44:28.117Z,47.00
2018-09-20T13:46:57.545Z,47.50
2018-09-20T13:49:26.868Z,46.50
2018-09-20T13:51:56.354Z,45.50
2018-09-20T13:54:25.861Z,46.50
2018-09-20T13:56:55.228Z,43.70
2018-09-20T13:59:24.724Z,41.90
2018-09-20T14:01:54.067Z,43.80
2018-09-20T14:04:23.579Z,42.20
2018-09-20T14:06:52.947Z,42.30
2018-09-20T14:09:22.307Z,43.10
2018-09-20T14:11:51.758Z,45.10
2018-09-20T14:14:21.103Z,42.90
2018-09-20T14:16:50.466Z,43.30
2018-09-20T14:19:19.806Z,44.60
2018-09-20T14:21:49.152Z,44.80
2018-09-20T14:24:18.703Z,46.40
2018-09-20T14:26:48.543Z,45.40
2018-09-20T14:29:18.199Z,45.80
2018-09-20T14:31:47.642Z,45.30
2018-09-20T14:34:17.037Z,44.80
2018-09-20T14:36:46.530Z,43.30
2018-09-20T14:39:15.805Z,44.50
2018-09-20T14:41:45.113Z,46.50
2018-09-20T14:44:14.476Z,46.00
2018-09-20T14:46:43.851Z,45.30
2018-09-20T14:49:13.180Z,46.40
2018-09-20T14:51:42.495Z,46.00
2018-09-20T14:54:11.822Z,44.30
2018-09-20T14:56:41.177Z,47.30
2018-09-20T14:59:10.573Z,44.80
2018-09-20T15:01:40.011Z,47.40
2018-09-20T15:04:09.498Z,44.90
2018-09-20T15:06:39.072Z,44.40
2018-09-20T15:09:12.386Z,44.80
2018-09-20T15:11:41.806Z,44.60
2018-09-20T15:14:11.217Z,44.30
2018-09-20T15:16:40.561Z,44.40
2018-09-20T15:19:09.966Z,45.90
2018-09-20T15:21:39.387Z,45.90
2018-09-20T15:24:08.944Z,46.00
2018-09-20T15:26:38.304Z,47.50
2018-09-20T15:29:07.706Z,48.90
2018-09-20T15:31:37.303Z,50.30
2018-09-20T15:34:07.356Z,48.90
2018-09-20T15:36:36.910Z,49.60
2018-09-20T15:39:10.348Z,50.10
2018-09-20T15:41:40.022Z,49.80
2018-09-20T15:44:10.201Z,50.00
2018-09-20T15:46:39.642Z,50.20
2018-09-20T15:49:09.018Z,50.60
2018-09-20T15:51:38.353Z,50.60
2018-09-20T15:54:08.367Z,49.90
2018-09-20T15:56:37.966Z,50.50
2018-09-20T15:59:07.349Z,51.00
2018-09-20T16:01:37.121Z,51.50
2018-09-20T16:04:06.882Z,50.90
2018-09-20T16:06:36.242Z,51.90
2018-09-20T16:09:09.273Z,53.40
2018-09-20T16:14:44.770Z,54.00
2018-09-20T16:17:14.103Z,54.60
2018-09-20T16:19:43.493Z,54.20
2018-09-20T16:22:12.896Z,54.20
2018-09-20T16:24:42.292Z,53.30
2018-09-20T16:27:11.726Z,53.70
2018-09-20T16:30:01.950Z,53.70
2018-09-20T16:34:52.196Z,53.40
2018-09-20T16:37:46.130Z,53.40
2018-09-20T16:40:16.869Z,53.60
2018-09-20T16:42:49.781Z,53.00
2018-09-20T16:45:19.198Z,53.50
2018-09-20T16:47:48.678Z,54.50
2018-09-20T16:50:18.145Z,55.00
2018-09-20T16:52:47.526Z,55.30
2018-09-20T16:55:17.009Z,54.80
2018-09-20T16:57:46.426Z,56.40
2018-09-20T17:00:16.356Z,57.10
2018-09-20T17:02:45.845Z,57.30
2018-09-20T17:05:15.268Z,57.50
2018-09-20T17:07:44.644Z,58.10
2018-09-20T17:10:14.134Z,58.60
2018-09-20T17:12:43.537Z,58.40
2018-09-20T17:15:13.120Z,59.10
2018-09-20T17:17:42.373Z,59.30
2018-09-20T17:20:11.823Z,59.40
2018-09-20T17:22:41.246Z,58.80
2018-09-20T17:25:10.645Z,58.90
2018-09-20T17:27:40.029Z,58.90
2018-09-20T17:30:09.408Z,59.20
2018-09-20T17:32:38.805Z,59.20
2018-09-20T17:35:08.536Z,59.00
2018-09-20T17:37:39.181Z,60.50
2018-09-20T17:40:09.135Z,60.80
2018-09-20T17:42:39.600Z,60.90
2018-09-20T17:45:09.066Z,60.70
2018-09-20T17:47:38.714Z,62.10
2018-09-20T17:50:08.335Z,61.40
2018-09-20T17:52:39.067Z,61.80
2018-09-20T17:55:09.060Z,61.80
2018-09-20T17:57:39.021Z,62.00
2018-09-20T18:00:08.557Z,62.40
2018-09-20T18:02:39.131Z,62.80
2018-09-20T18:05:08.657Z,61.90
2018-09-20T18:07:38.235Z,61.70
2018-09-20T18:10:07.975Z,63.30
2018-09-20T18:12:37.698Z,63.30
2018-09-20T18:15:07.254Z,64.10
2018-09-20T18:17:37.278Z,62.90
2018-09-20T18:20:06.804Z,64.30
2018-09-20T18:22:36.620Z,64.70
2018-09-20T18:25:06.231Z,65.10
2018-09-20T18:27:35.785Z,64.70
2018-09-20T18:30:05.675Z,65.30
2018-09-20T18:32:35.322Z,65.40
2018-09-20T18:35:05.059Z,66.60
2018-09-20T18:37:36.328Z,67.40
2018-09-20T18:40:05.903Z,66.50
2018-09-20T18:42:35.559Z,66.90
2018-09-20T18:45:05.506Z,67.20
2018-09-20T18:47:35.282Z,67.40
2018-09-20T18:50:05.128Z,67.70
2018-09-20T18:52:35.137Z,67.00
2018-09-20T18:55:05.646Z,66.90
2018-09-20T18:57:35.598Z,67.80
2018-09-20T19:00:05.525Z,67.90
2018-09-20T19:02:35.547Z,67.60
2018-09-20T19:05:05.289Z,68.20
2018-09-20T19:07:35.096Z,67.80
2018-09-20T19:10:04.975Z,68.70
2018-09-20T19:12:34.746Z,68.10
2018-09-20T19:15:04.975Z,68.10
2018-09-20T19:17:34.996Z,68.50
2018-09-20T19:20:05.088Z,68.50
2018-09-20T19:22:34.795Z,68.90
2018-09-20T19:25:04.830Z,69.10
2018-09-20T19:27:34.652Z,69.50
2018-09-20T19:30:04.580Z,69.00
2018-09-20T19:32:34.327Z,69.70
2018-09-20T19:35:04.416Z,70.90
2018-09-20T19:37:34.611Z,70.80
2018-09-20T19:40:04.660Z,71.30
2018-09-20T19:42:34.631Z,71.60
2018-09-20T19:45:04.319Z,71.90
2018-09-20T19:47:33.954Z,72.20
2018-09-20T19:50:03.670Z,72.30
2018-09-20T19:52:33.676Z,71.80
2018-09-20T19:55:03.482Z,72.40
2018-09-20T19:57:33.397Z,72.80
2018-09-20T20:00:03.285Z,73.10
2018-09-20T20:02:33.424Z,72.40
2018-09-20T20:05:03.465Z,72.70
2018-09-20T20:07:33.822Z,73.00
2018-09-20T20:10:03.707Z,73.00
2018-09-20T20:12:34.551Z,73.20
2018-09-20T20:15:04.351Z,73.20
2018-09-20T20:17:34.052Z,72.70
2018-09-20T20:20:04.258Z,72.80
2018-09-20T20:22:34.043Z,74.10
2018-09-20T20:25:03.773Z,73.90
2018-09-20T20:27:33.468Z,73.90
2018-09-20T20:30:02.953Z,73.20
2018-09-20T20:32:32.758Z,74.10
2018-09-20T20:35:02.436Z,74.10
2018-09-20T20:37:32.204Z,74.10
2018-09-20T20:40:02.217Z,74.40
2018-09-20T20:42:32.248Z,74.20
2018-09-20T20:45:32.886Z,74.00
2018-09-20T20:48:02.135Z,75.40
2018-09-20T20:50:31.270Z,75.00
2018-09-20T20:53:10.445Z,75.20
2018-09-20T20:55:39.562Z,75.30
2018-09-20T20:58:08.745Z,75.20
2018-09-20T21:00:37.877Z,75.80
2018-09-20T21:03:07.030Z,75.70
2018-09-20T21:05:36.211Z,76.20
2018-09-20T21:08:05.374Z,76.20
2018-09-20T21:10:34.576Z,76.40
2018-09-20T21:13:03.753Z,75.90
2018-09-20T21:15:32.925Z,76.40
2018-09-20T21:18:02.081Z,75.90
2018-09-20T21:20:31.268Z,76.00
2018-09-20T21:23:00.454Z,77.10
2018-09-20T21:25:29.630Z,76.20
2018-09-20T21:27:58.793Z,76.40
2018-09-20T21:30:28.025Z,76.20
2018-09-20T21:32:57.193Z,76.60
2018-09-20T21:35:26.358Z,76.90
2018-09-20T21:37:55.529Z,76.80
2018-09-20T21:40:24.760Z,77.60
2018-09-20T21:42:54.061Z,77.40
2018-09-20T21:45:23.261Z,77.10
2018-09-20T21:47:52.452Z,77.60
2018-09-20T21:50:21.654Z,77.90
2018-09-20T21:52:50.788Z,77.60
2018-09-20T21:55:19.954Z,77.30
2018-09-20T21:57:49.109Z,76.90
2018-09-20T22:00:18.290Z,76.70
2018-09-20T22:02:52.713Z,77.00
2018-09-20T22:05:21.962Z,76.40
2018-09-20T22:07:51.090Z,77.70
2018-09-20T22:10:20.256Z,77.30
2018-09-20T22:12:49.393Z,77.30
2018-09-20T22:15:23.641Z,77.30
2018-09-20T22:17:53.449Z,77.40
2018-09-20T22:20:23.462Z,78.00
2018-09-20T22:22:52.773Z,77.70
2018-09-20T22:25:22.059Z,77.70
2018-09-20T22:27:51.566Z,77.70
2018-09-20T22:30:20.741Z,78.00
2018-09-20T22:32:49.950Z,77.60
2018-09-20T22:35:19.195Z,77.90
2018-09-20T22:37:48.379Z,77.90
2018-09-20T22:40:17.577Z,78.00
2018-09-20T22:42:46.770Z,77.70
2018-09-20T22:45:15.997Z,78.20
2018-09-20T22:47:45.217Z,78.00
2018-09-20T22:50:14.438Z,77.50
2018-09-20T22:52:43.634Z,77.70
2018-09-20T22:55:12.822Z,78.70
2018-09-20T22:57:42.014Z,78.90
2018-09-20T23:00:11.201Z,79.00
2018-09-20T23:02:40.385Z,78.20
2018-09-20T23:05:09.594Z,78.00
2018-09-20T23:07:38.806Z,78.30
2018-09-20T23:10:08.025Z,78.60
2018-09-20T23:12:37.222Z,78.60
2018-09-20T23:15:06.504Z,78.80
2018-09-20T23:17:35.701Z,79.00
2018-09-20T23:20:05.369Z,79.30
2018-09-20T23:22:34.554Z,79.50
2018-09-20T23:25:03.726Z,79.10
2018-09-20T23:27:32.903Z,79.20
2018-09-20T23:30:02.080Z,79.20
2018-09-20T23:32:31.258Z,79.80
2018-09-20T23:35:00.452Z,79.20
2018-09-20T23:37:29.649Z,79.80
2018-09-20T23:39:58.835Z,79.40
2018-09-20T23:42:28.033Z,79.60
2018-09-20T23:44:57.223Z,79.80
2018-09-20T23:47:26.413Z,80.20
2018-09-20T23:49:55.675Z,79.60
2018-09-20T23:52:24.869Z,79.90
2018-09-20T23:54:54.090Z,79.90
2018-09-20T23:57:23.332Z,80.40
2018-09-20T23:59:52.522Z,80.00
